sensor_id;sensor_type;location;lat;lon;timestamp;P1;durP1;ratioP1;P2;durP2;ratioP2
15603;SDS011;7902;49.042;9.092;2023-07-24T00:01:23;37.83;;;6.97;;
15603;SDS011;7902;49.042;9.092;2023-07-24T00:03:49;26.77;;;7.33;;
15603;SDS011;7902;49.042;9.092;2023-07-24T00:06:15;26.07;;;6.20;;
15603;SDS011;7902;49.042;9.092;2023-07-24T00:08:40;27.07;;;7.17;;
15603;SDS011;7902;49.042;9.092;2023-07-24T00:11:07;24.90;;;5.97;;
15603;SDS011;7902;49.042;9.092;2023-07-24T00:13:33;24.83;;;6.67;;
15603;SDS011;7902;49.042;9.092;2023-07-24T00:15:59;27.70;;;7.80;;
15603;SDS011;7902;49.042;9.092;2023-07-24T00:18:25;25.20;;;6.97;;
15603;SDS011;7902;49.042;9.092;2023-07-24T00:20:51;29.43;;;7.50;;
15603;SDS011;7902;49.042;9.092;2023-07-24T00:23:17;24.00;;;6.77;;
15603;SDS011;7902;49.042;9.092;2023-07-24T00:25:43;29.50;;;7.50;;
15603;SDS011;7902;49.042;9.092;2023-07-24T00:28:09;25.23;;;6.67;;
15603;SDS011;7902;49.042;9.092;2023-07-24T00:30:34;25.80;;;7.07;;
15603;SDS011;7902;49.042;9.092;2023-07-24T00:33:00;24.40;;;6.70;;
15603;SDS011;7902;49.042;9.092;2023-07-24T00:35:26;24.20;;;6.90;;
15603;SDS011;7902;49.042;9.092;2023-07-24T00:37:52;27.57;;;7.63;;
15603;SDS011;7902;49.042;9.092;2023-07-24T00:40:18;23.83;;;6.50;;
15603;SDS011;7902;49.042;9.092;2023-07-24T00:42:47;25.20;;;6.73;;
15603;SDS011;7902;49.042;9.092;2023-07-24T00:45:14;27.37;;;7.73;;
15603;SDS011;7902;49.042;9.092;2023-07-24T00:47:40;25.67;;;8.00;;
15603;SDS011;7902;49.042;9.092;2023-07-24T00:50:07;26.47;;;7.27;;
15603;SDS011;7902;49.042;9.092;2023-07-24T00:52:34;25.03;;;7.03;;
15603;SDS011;7902;49.042;9.092;2023-07-24T00:55:01;22.87;;;6.87;;
15603;SDS011;7902;49.042;9.092;2023-07-24T00:57:27;24.60;;;6.37;;
15603;SDS011;7902;49.042;9.092;2023-07-24T00:59:53;28.40;;;7.03;;
15603;SDS011;7902;49.042;9.092;2023-07-24T01:02:20;24.03;;;7.13;;
15603;SDS011;7902;49.042;9.092;2023-07-24T01:04:46;24.47;;;6.53;;
15603;SDS011;7902;49.042;9.092;2023-07-24T01:07:12;24.90;;;7.07;;
15603;SDS011;7902;49.042;9.092;2023-07-24T01:09:38;32.10;;;7.00;;
15603;SDS011;7902;49.042;9.092;2023-07-24T01:12:13;25.10;;;7.23;;
15603;SDS011;7902;49.042;9.092;2023-07-24T01:15:22;24.20;;;7.07;;
15603;SDS011;7902;49.042;9.092;2023-07-24T01:17:48;25.17;;;6.83;;
15603;SDS011;7902;49.042;9.092;2023-07-24T01:20:19;26.27;;;7.43;;
15603;SDS011;7902;49.042;9.092;2023-07-24T01:22:55;25.77;;;7.03;;
15603;SDS011;7902;49.042;9.092;2023-07-24T01:25:33;26.13;;;7.73;;
15603;SDS011;7902;49.042;9.092;2023-07-24T01:28:01;25.80;;;7.93;;
15603;SDS011;7902;49.042;9.092;2023-07-24T01:30:27;26.90;;;7.97;;
15603;SDS011;7902;49.042;9.092;2023-07-24T01:32:53;27.80;;;7.50;;
15603;SDS011;7902;49.042;9.092;2023-07-24T01:35:18;25.50;;;7.70;;
15603;SDS011;7902;49.042;9.092;2023-07-24T01:37:44;26.07;;;7.00;;
15603;SDS011;7902;49.042;9.092;2023-07-24T01:40:12;30.23;;;8.47;;
15603;SDS011;7902;49.042;9.092;2023-07-24T01:42:38;32.77;;;7.97;;
15603;SDS011;7902;49.042;9.092;2023-07-24T01:45:05;36.10;;;8.77;;
15603;SDS011;7902;49.042;9.092;2023-07-24T01:47:31;29.60;;;8.83;;
15603;SDS011;7902;49.042;9.092;2023-07-24T01:49:57;25.83;;;7.97;;
15603;SDS011;7902;49.042;9.092;2023-07-24T01:52:23;26.87;;;7.77;;
15603;SDS011;7902;49.042;9.092;2023-07-24T01:54:49;32.53;;;7.87;;
15603;SDS011;7902;49.042;9.092;2023-07-24T01:57:15;26.47;;;6.80;;
15603;SDS011;7902;49.042;9.092;2023-07-24T01:59:41;25.70;;;7.10;;
15603;SDS011;7902;49.042;9.092;2023-07-24T02:02:07;26.47;;;7.10;;
15603;SDS011;7902;49.042;9.092;2023-07-24T02:04:33;28.80;;;7.47;;
15603;SDS011;7902;49.042;9.092;2023-07-24T02:06:59;25.87;;;7.53;;
15603;SDS011;7902;49.042;9.092;2023-07-24T02:09:25;31.03;;;8.10;;
15603;SDS011;7902;49.042;9.092;2023-07-24T02:11:50;27.40;;;7.70;;
15603;SDS011;7902;49.042;9.092;2023-07-24T02:14:17;31.07;;;7.40;;
15603;SDS011;7902;49.042;9.092;2023-07-24T02:16:43;37.10;;;8.30;;
15603;SDS011;7902;49.042;9.092;2023-07-24T02:19:09;32.00;;;8.87;;
15603;SDS011;7902;49.042;9.092;2023-07-24T02:21:35;28.57;;;7.70;;
15603;SDS011;7902;49.042;9.092;2023-07-24T02:24:01;24.47;;;7.83;;
15603;SDS011;7902;49.042;9.092;2023-07-24T02:26:27;28.67;;;7.80;;
15603;SDS011;7902;49.042;9.092;2023-07-24T02:28:53;26.17;;;7.60;;
15603;SDS011;7902;49.042;9.092;2023-07-24T02:31:19;27.20;;;7.57;;
15603;SDS011;7902;49.042;9.092;2023-07-24T02:33:45;28.60;;;7.47;;
15603;SDS011;7902;49.042;9.092;2023-07-24T02:36:11;30.60;;;8.10;;
15603;SDS011;7902;49.042;9.092;2023-07-24T02:38:37;26.90;;;7.60;;
15603;SDS011;7902;49.042;9.092;2023-07-24T02:41:03;28.00;;;7.97;;
15603;SDS011;7902;49.042;9.092;2023-07-24T02:43:29;39.10;;;7.83;;
15603;SDS011;7902;49.042;9.092;2023-07-24T02:45:55;23.37;;;7.27;;
15603;SDS011;7902;49.042;9.092;2023-07-24T02:48:25;26.63;;;8.03;;
15603;SDS011;7902;49.042;9.092;2023-07-24T02:50:51;27.87;;;8.07;;
15603;SDS011;7902;49.042;9.092;2023-07-24T02:53:17;25.57;;;7.50;;
15603;SDS011;7902;49.042;9.092;2023-07-24T02:55:43;23.33;;;7.10;;
15603;SDS011;7902;49.042;9.092;2023-07-24T02:58:10;25.73;;;7.87;;
15603;SDS011;7902;49.042;9.092;2023-07-24T03:00:37;24.37;;;7.93;;
15603;SDS011;7902;49.042;9.092;2023-07-24T03:03:03;24.87;;;7.23;;
15603;SDS011;7902;49.042;9.092;2023-07-24T03:05:30;41.17;;;7.80;;
15603;SDS011;7902;49.042;9.092;2023-07-24T03:07:56;24.63;;;7.70;;
15603;SDS011;7902;49.042;9.092;2023-07-24T03:10:22;28.13;;;8.10;;
15603;SDS011;7902;49.042;9.092;2023-07-24T03:12:49;28.70;;;7.40;;
15603;SDS011;7902;49.042;9.092;2023-07-24T03:15:14;28.83;;;7.50;;
15603;SDS011;7902;49.042;9.092;2023-07-24T03:17:40;25.60;;;7.40;;
15603;SDS011;7902;49.042;9.092;2023-07-24T03:20:16;28.33;;;8.27;;
15603;SDS011;7902;49.042;9.092;2023-07-24T03:22:43;24.27;;;7.57;;
15603;SDS011;7902;49.042;9.092;2023-07-24T03:25:10;23.83;;;6.97;;
15603;SDS011;7902;49.042;9.092;2023-07-24T03:27:36;32.40;;;7.40;;
15603;SDS011;7902;49.042;9.092;2023-07-24T03:30:02;27.87;;;8.73;;
15603;SDS011;7902;49.042;9.092;2023-07-24T03:32:29;29.43;;;7.53;;
15603;SDS011;7902;49.042;9.092;2023-07-24T03:34:55;25.70;;;8.03;;
15603;SDS011;7902;49.042;9.092;2023-07-24T03:37:20;29.43;;;8.67;;
15603;SDS011;7902;49.042;9.092;2023-07-24T03:39:46;24.97;;;7.30;;
15603;SDS011;7902;49.042;9.092;2023-07-24T03:42:23;26.30;;;7.77;;
15603;SDS011;7902;49.042;9.092;2023-07-24T03:44:53;26.43;;;7.87;;
15603;SDS011;7902;49.042;9.092;2023-07-24T03:47:20;23.30;;;7.33;;
15603;SDS011;7902;49.042;9.092;2023-07-24T03:49:46;24.60;;;7.90;;
15603;SDS011;7902;49.042;9.092;2023-07-24T03:52:11;24.23;;;7.43;;
15603;SDS011;7902;49.042;9.092;2023-07-24T03:54:37;25.70;;;8.27;;
15603;SDS011;7902;49.042;9.092;2023-07-24T03:57:03;24.70;;;7.57;;
15603;SDS011;7902;49.042;9.092;2023-07-24T03:59:30;27.47;;;8.00;;
15603;SDS011;7902;49.042;9.092;2023-07-24T04:01:57;27.00;;;7.70;;
15603;SDS011;7902;49.042;9.092;2023-07-24T04:04:23;27.13;;;8.00;;
15603;SDS011;7902;49.042;9.092;2023-07-24T04:06:49;30.33;;;7.53;;
15603;SDS011;7902;49.042;9.092;2023-07-24T04:09:15;33.97;;;7.53;;
15603;SDS011;7902;49.042;9.092;2023-07-24T04:11:42;32.90;;;7.50;;
15603;SDS011;7902;49.042;9.092;2023-07-24T04:14:08;29.50;;;7.70;;
15603;SDS011;7902;49.042;9.092;2023-07-24T04:16:34;24.87;;;7.60;;
15603;SDS011;7902;49.042;9.092;2023-07-24T04:19:00;24.40;;;7.33;;
15603;SDS011;7902;49.042;9.092;2023-07-24T04:21:26;30.30;;;8.83;;
15603;SDS011;7902;49.042;9.092;2023-07-24T04:23:52;26.43;;;7.00;;
15603;SDS011;7902;49.042;9.092;2023-07-24T04:26:18;29.80;;;8.23;;
15603;SDS011;7902;49.042;9.092;2023-07-24T04:28:44;32.13;;;7.53;;
15603;SDS011;7902;49.042;9.092;2023-07-24T04:31:09;29.30;;;7.97;;
15603;SDS011;7902;49.042;9.092;2023-07-24T04:33:35;26.13;;;8.40;;
15603;SDS011;7902;49.042;9.092;2023-07-24T04:36:01;29.30;;;7.70;;
15603;SDS011;7902;49.042;9.092;2023-07-24T04:38:27;27.97;;;8.13;;
15603;SDS011;7902;49.042;9.092;2023-07-24T04:40:53;28.10;;;7.77;;
15603;SDS011;7902;49.042;9.092;2023-07-24T04:43:19;29.10;;;8.23;;
15603;SDS011;7902;49.042;9.092;2023-07-24T04:45:45;27.60;;;8.30;;
15603;SDS011;7902;49.042;9.092;2023-07-24T04:48:11;29.00;;;8.03;;
15603;SDS011;7902;49.042;9.092;2023-07-24T04:50:37;27.23;;;8.07;;
15603;SDS011;7902;49.042;9.092;2023-07-24T04:53:02;26.93;;;8.00;;
15603;SDS011;7902;49.042;9.092;2023-07-24T04:55:28;29.77;;;8.00;;
15603;SDS011;7902;49.042;9.092;2023-07-24T04:57:54;25.10;;;7.07;;
15603;SDS011;7902;49.042;9.092;2023-07-24T05:00:20;27.10;;;8.27;;
15603;SDS011;7902;49.042;9.092;2023-07-24T05:02:46;28.60;;;7.70;;
15603;SDS011;7902;49.042;9.092;2023-07-24T05:05:12;26.80;;;8.17;;
15603;SDS011;7902;49.042;9.092;2023-07-24T05:07:38;27.03;;;7.60;;
15603;SDS011;7902;49.042;9.092;2023-07-24T05:10:04;33.20;;;7.87;;
15603;SDS011;7902;49.042;9.092;2023-07-24T05:12:30;25.83;;;7.20;;
15603;SDS011;7902;49.042;9.092;2023-07-24T05:14:56;27.10;;;8.13;;
15603;SDS011;7902;49.042;9.092;2023-07-24T05:17:22;30.70;;;7.50;;
15603;SDS011;7902;49.042;9.092;2023-07-24T05:19:48;33.53;;;8.13;;
15603;SDS011;7902;49.042;9.092;2023-07-24T05:22:14;26.60;;;7.33;;
15603;SDS011;7902;49.042;9.092;2023-07-24T05:24:40;25.20;;;7.80;;
15603;SDS011;7902;49.042;9.092;2023-07-24T05:27:06;27.53;;;8.10;;
15603;SDS011;7902;49.042;9.092;2023-07-24T05:29:32;28.47;;;8.40;;
15603;SDS011;7902;49.042;9.092;2023-07-24T05:31:58;23.60;;;7.50;;
15603;SDS011;7902;49.042;9.092;2023-07-24T05:34:24;29.40;;;7.87;;
15603;SDS011;7902;49.042;9.092;2023-07-24T05:36:51;27.07;;;7.70;;
15603;SDS011;7902;49.042;9.092;2023-07-24T05:39:17;27.47;;;8.20;;
15603;SDS011;7902;49.042;9.092;2023-07-24T05:41:43;28.23;;;8.20;;
15603;SDS011;7902;49.042;9.092;2023-07-24T05:44:10;30.10;;;7.30;;
15603;SDS011;7902;49.042;9.092;2023-07-24T05:46:36;33.03;;;7.67;;
15603;SDS011;7902;49.042;9.092;2023-07-24T05:49:01;23.60;;;6.67;;
15603;SDS011;7902;49.042;9.092;2023-07-24T05:51:27;29.30;;;8.73;;
15603;SDS011;7902;49.042;9.092;2023-07-24T05:53:53;29.50;;;7.80;;
15603;SDS011;7902;49.042;9.092;2023-07-24T05:56:19;24.73;;;7.80;;
15603;SDS011;7902;49.042;9.092;2023-07-24T05:58:45;28.70;;;7.47;;
15603;SDS011;7902;49.042;9.092;2023-07-24T06:01:11;35.00;;;8.57;;
15603;SDS011;7902;49.042;9.092;2023-07-24T06:03:37;35.57;;;8.07;;
15603;SDS011;7902;49.042;9.092;2023-07-24T06:06:04;28.20;;;7.67;;
15603;SDS011;7902;49.042;9.092;2023-07-24T06:08:30;27.47;;;7.87;;
15603;SDS011;7902;49.042;9.092;2023-07-24T06:10:56;29.17;;;7.60;;
15603;SDS011;7902;49.042;9.092;2023-07-24T06:13:22;30.73;;;8.20;;
15603;SDS011;7902;49.042;9.092;2023-07-24T06:15:48;27.00;;;8.17;;
15603;SDS011;7902;49.042;9.092;2023-07-24T06:18:14;27.27;;;8.50;;
15603;SDS011;7902;49.042;9.092;2023-07-24T06:20:40;26.40;;;7.47;;
15603;SDS011;7902;49.042;9.092;2023-07-24T06:23:06;32.40;;;8.40;;
15603;SDS011;7902;49.042;9.092;2023-07-24T06:25:32;28.60;;;7.87;;
15603;SDS011;7902;49.042;9.092;2023-07-24T06:27:58;29.33;;;7.43;;
15603;SDS011;7902;49.042;9.092;2023-07-24T06:30:24;30.30;;;7.43;;
15603;SDS011;7902;49.042;9.092;2023-07-24T06:32:50;31.27;;;7.60;;
15603;SDS011;7902;49.042;9.092;2023-07-24T06:35:16;32.20;;;7.77;;
15603;SDS011;7902;49.042;9.092;2023-07-24T06:37:42;25.87;;;7.70;;
15603;SDS011;7902;49.042;9.092;2023-07-24T06:40:08;27.57;;;8.33;;
15603;SDS011;7902;49.042;9.092;2023-07-24T06:42:34;28.70;;;7.63;;
15603;SDS011;7902;49.042;9.092;2023-07-24T06:45:00;24.30;;;7.00;;
15603;SDS011;7902;49.042;9.092;2023-07-24T06:47:26;32.90;;;7.50;;
15603;SDS011;7902;49.042;9.092;2023-07-24T06:49:52;26.67;;;7.30;;
15603;SDS011;7902;49.042;9.092;2023-07-24T06:52:18;34.50;;;8.07;;
15603;SDS011;7902;49.042;9.092;2023-07-24T06:54:44;28.43;;;7.80;;
15603;SDS011;7902;49.042;9.092;2023-07-24T06:57:10;29.37;;;8.03;;
15603;SDS011;7902;49.042;9.092;2023-07-24T06:59:35;34.67;;;8.17;;
15603;SDS011;7902;49.042;9.092;2023-07-24T07:02:01;34.60;;;8.10;;
15603;SDS011;7902;49.042;9.092;2023-07-24T07:04:27;29.13;;;8.47;;
15603;SDS011;7902;49.042;9.092;2023-07-24T07:06:53;29.30;;;8.57;;
15603;SDS011;7902;49.042;9.092;2023-07-24T07:09:19;31.90;;;7.93;;
15603;SDS011;7902;49.042;9.092;2023-07-24T07:11:45;27.73;;;7.13;;
15603;SDS011;7902;49.042;9.092;2023-07-24T07:14:11;39.77;;;7.70;;
15603;SDS011;7902;49.042;9.092;2023-07-24T07:16:38;32.10;;;8.10;;
15603;SDS011;7902;49.042;9.092;2023-07-24T07:19:04;27.43;;;8.20;;
15603;SDS011;7902;49.042;9.092;2023-07-24T07:21:30;37.53;;;9.23;;
15603;SDS011;7902;49.042;9.092;2023-07-24T07:23:56;29.50;;;7.67;;
15603;SDS011;7902;49.042;9.092;2023-07-24T07:26:21;37.80;;;7.53;;
15603;SDS011;7902;49.042;9.092;2023-07-24T07:28:48;37.07;;;8.60;;
15603;SDS011;7902;49.042;9.092;2023-07-24T07:31:14;37.17;;;9.40;;
15603;SDS011;7902;49.042;9.092;2023-07-24T07:33:39;27.30;;;7.43;;
15603;SDS011;7902;49.042;9.092;2023-07-24T07:36:05;27.67;;;8.40;;
15603;SDS011;7902;49.042;9.092;2023-07-24T07:38:31;34.83;;;8.10;;
15603;SDS011;7902;49.042;9.092;2023-07-24T07:40:58;31.03;;;7.93;;
15603;SDS011;7902;49.042;9.092;2023-07-24T07:43:24;41.23;;;8.33;;
15603;SDS011;7902;49.042;9.092;2023-07-24T07:45:49;26.07;;;7.10;;
15603;SDS011;7902;49.042;9.092;2023-07-24T07:48:15;27.00;;;7.50;;
15603;SDS011;7902;49.042;9.092;2023-07-24T07:50:41;30.30;;;8.43;;
15603;SDS011;7902;49.042;9.092;2023-07-24T07:53:07;32.93;;;8.30;;
15603;SDS011;7902;49.042;9.092;2023-07-24T07:55:33;33.33;;;9.20;;
15603;SDS011;7902;49.042;9.092;2023-07-24T07:57:59;30.27;;;9.23;;
15603;SDS011;7902;49.042;9.092;2023-07-24T08:00:25;29.50;;;8.93;;
15603;SDS011;7902;49.042;9.092;2023-07-24T08:02:51;33.30;;;8.63;;
15603;SDS011;7902;49.042;9.092;2023-07-24T08:05:17;33.80;;;10.30;;
15603;SDS011;7902;49.042;9.092;2023-07-24T08:07:43;29.90;;;8.27;;
15603;SDS011;7902;49.042;9.092;2023-07-24T08:10:09;28.83;;;8.40;;
15603;SDS011;7902;49.042;9.092;2023-07-24T08:12:35;33.43;;;10.40;;
15603;SDS011;7902;49.042;9.092;2023-07-24T08:15:01;35.80;;;8.00;;
15603;SDS011;7902;49.042;9.092;2023-07-24T08:17:26;39.20;;;9.10;;
15603;SDS011;7902;49.042;9.092;2023-07-24T08:19:52;36.40;;;8.90;;
15603;SDS011;7902;49.042;9.092;2023-07-24T08:22:18;29.53;;;8.00;;
15603;SDS011;7902;49.042;9.092;2023-07-24T08:24:45;28.80;;;7.60;;
15603;SDS011;7902;49.042;9.092;2023-07-24T08:27:11;33.40;;;8.60;;
15603;SDS011;7902;49.042;9.092;2023-07-24T08:29:37;32.37;;;8.93;;
15603;SDS011;7902;49.042;9.092;2023-07-24T08:32:04;31.93;;;8.97;;
15603;SDS011;7902;49.042;9.092;2023-07-24T08:34:30;35.43;;;9.30;;
15603;SDS011;7902;49.042;9.092;2023-07-24T08:36:56;39.77;;;9.17;;
15603;SDS011;7902;49.042;9.092;2023-07-24T08:39:22;32.70;;;8.53;;
15603;SDS011;7902;49.042;9.092;2023-07-24T08:41:48;36.90;;;9.30;;
15603;SDS011;7902;49.042;9.092;2023-07-24T08:44:14;37.03;;;9.00;;
15603;SDS011;7902;49.042;9.092;2023-07-24T08:46:41;28.07;;;9.40;;
15603;SDS011;7902;49.042;9.092;2023-07-24T08:49:11;30.10;;;9.40;;
15603;SDS011;7902;49.042;9.092;2023-07-24T08:51:39;40.07;;;9.80;;
15603;SDS011;7902;49.042;9.092;2023-07-24T08:54:06;29.73;;;8.53;;
15603;SDS011;7902;49.042;9.092;2023-07-24T08:56:33;27.50;;;9.03;;
15603;SDS011;7902;49.042;9.092;2023-07-24T08:58:59;29.13;;;8.90;;
15603;SDS011;7902;49.042;9.092;2023-07-24T09:01:25;28.83;;;9.00;;
15603;SDS011;7902;49.042;9.092;2023-07-24T09:03:51;43.00;;;10.07;;
15603;SDS011;7902;49.042;9.092;2023-07-24T09:06:17;36.70;;;9.40;;
15603;SDS011;7902;49.042;9.092;2023-07-24T09:08:43;36.53;;;9.77;;
15603;SDS011;7902;49.042;9.092;2023-07-24T09:11:10;36.63;;;10.07;;
15603;SDS011;7902;49.042;9.092;2023-07-24T09:13:40;29.70;;;9.07;;
15603;SDS011;7902;49.042;9.092;2023-07-24T09:16:07;31.50;;;9.13;;
15603;SDS011;7902;49.042;9.092;2023-07-24T09:18:39;29.17;;;8.77;;
15603;SDS011;7902;49.042;9.092;2023-07-24T09:21:06;28.93;;;9.33;;
15603;SDS011;7902;49.042;9.092;2023-07-24T09:23:32;25.17;;;8.10;;
15603;SDS011;7902;49.042;9.092;2023-07-24T09:25:58;32.87;;;8.20;;
15603;SDS011;7902;49.042;9.092;2023-07-24T09:28:24;33.60;;;9.40;;
15603;SDS011;7902;49.042;9.092;2023-07-24T09:30:51;29.73;;;9.10;;
15603;SDS011;7902;49.042;9.092;2023-07-24T09:33:38;38.60;;;7.87;;
15603;SDS011;7902;49.042;9.092;2023-07-24T09:36:06;28.23;;;7.83;;
15603;SDS011;7902;49.042;9.092;2023-07-24T09:38:34;33.20;;;9.37;;
15603;SDS011;7902;49.042;9.092;2023-07-24T09:41:01;27.10;;;7.70;;
15603;SDS011;7902;49.042;9.092;2023-07-24T09:43:29;26.27;;;8.23;;
15603;SDS011;7902;49.042;9.092;2023-07-24T09:45:56;27.30;;;8.60;;
15603;SDS011;7902;49.042;9.092;2023-07-24T09:48:24;32.13;;;8.73;;
15603;SDS011;7902;49.042;9.092;2023-07-24T09:50:55;27.70;;;8.20;;
15603;SDS011;7902;49.042;9.092;2023-07-24T09:54:25;25.17;;;7.70;;
15603;SDS011;7902;49.042;9.092;2023-07-24T09:56:38;33.03;;;8.67;;
15603;SDS011;7902;49.042;9.092;2023-07-24T09:59:07;28.07;;;8.43;;
15603;SDS011;7902;49.042;9.092;2023-07-24T10:01:34;32.57;;;7.87;;
15603;SDS011;7902;49.042;9.092;2023-07-24T10:04:03;29.70;;;8.10;;
15603;SDS011;7902;49.042;9.092;2023-07-24T10:06:29;31.93;;;8.40;;
15603;SDS011;7902;49.042;9.092;2023-07-24T10:08:57;33.83;;;7.70;;
15603;SDS011;7902;49.042;9.092;2023-07-24T10:11:23;26.63;;;7.40;;
15603;SDS011;7902;49.042;9.092;2023-07-24T10:13:50;28.10;;;7.80;;
15603;SDS011;7902;49.042;9.092;2023-07-24T10:16:16;28.80;;;7.73;;
15603;SDS011;7902;49.042;9.092;2023-07-24T10:18:43;29.70;;;7.50;;
15603;SDS011;7902;49.042;9.092;2023-07-24T10:21:13;31.00;;;8.10;;
15603;SDS011;7902;49.042;9.092;2023-07-24T10:23:42;28.60;;;8.23;;
15603;SDS011;7902;49.042;9.092;2023-07-24T10:26:10;28.17;;;8.70;;
15603;SDS011;7902;49.042;9.092;2023-07-24T10:28:37;27.77;;;8.20;;
15603;SDS011;7902;49.042;9.092;2023-07-24T10:33:45;28.40;;;8.90;;
15603;SDS011;7902;49.042;9.092;2023-07-24T10:36:11;28.40;;;9.13;;
15603;SDS011;7902;49.042;9.092;2023-07-24T10:38:40;27.77;;;8.40;;
15603;SDS011;7902;49.042;9.092;2023-07-24T10:41:07;30.87;;;8.30;;
15603;SDS011;7902;49.042;9.092;2023-07-24T10:43:44;30.60;;;8.67;;
15603;SDS011;7902;49.042;9.092;2023-07-24T10:46:12;36.47;;;9.40;;
15603;SDS011;7902;49.042;9.092;2023-07-24T10:48:46;29.83;;;9.00;;
15603;SDS011;7902;49.042;9.092;2023-07-24T10:51:13;31.33;;;9.90;;
15603;SDS011;7902;49.042;9.092;2023-07-24T10:53:44;30.03;;;8.93;;
15603;SDS011;7902;49.042;9.092;2023-07-24T10:56:11;30.47;;;8.50;;
15603;SDS011;7902;49.042;9.092;2023-07-24T10:58:37;23.90;;;7.73;;
15603;SDS011;7902;49.042;9.092;2023-07-24T11:01:04;24.23;;;7.93;;
15603;SDS011;7902;49.042;9.092;2023-07-24T11:03:31;34.77;;;8.60;;
15603;SDS011;7902;49.042;9.092;2023-07-24T11:05:57;35.87;;;9.13;;
15603;SDS011;7902;49.042;9.092;2023-07-24T11:08:24;37.67;;;9.67;;
15603;SDS011;7902;49.042;9.092;2023-07-24T11:10:57;30.03;;;8.37;;
15603;SDS011;7902;49.042;9.092;2023-07-24T11:13:24;28.03;;;7.70;;
15603;SDS011;7902;49.042;9.092;2023-07-24T11:15:51;27.20;;;8.50;;
15603;SDS011;7902;49.042;9.092;2023-07-24T11:18:18;37.17;;;8.80;;
15603;SDS011;7902;49.042;9.092;2023-07-24T11:20:51;26.50;;;7.57;;
15603;SDS011;7902;49.042;9.092;2023-07-24T11:23:21;29.23;;;8.40;;
15603;SDS011;7902;49.042;9.092;2023-07-24T11:25:51;24.17;;;7.30;;
15603;SDS011;7902;49.042;9.092;2023-07-24T11:28:18;26.10;;;7.40;;
15603;SDS011;7902;49.042;9.092;2023-07-24T11:30:44;29.60;;;7.13;;
15603;SDS011;7902;49.042;9.092;2023-07-24T11:33:11;34.37;;;8.70;;
15603;SDS011;7902;49.042;9.092;2023-07-24T11:35:39;24.47;;;6.60;;
15603;SDS011;7902;49.042;9.092;2023-07-24T11:38:07;26.10;;;6.93;;
15603;SDS011;7902;49.042;9.092;2023-07-24T11:40:36;25.47;;;6.43;;
15603;SDS011;7902;49.042;9.092;2023-07-24T11:43:04;30.93;;;7.20;;
15603;SDS011;7902;49.042;9.092;2023-07-24T11:45:30;25.23;;;6.50;;
15603;SDS011;7902;49.042;9.092;2023-07-24T11:47:57;22.23;;;6.30;;
15603;SDS011;7902;49.042;9.092;2023-07-24T11:50:23;23.40;;;6.10;;
15603;SDS011;7902;49.042;9.092;2023-07-24T11:52:50;31.10;;;7.60;;
15603;SDS011;7902;49.042;9.092;2023-07-24T11:55:17;32.87;;;7.30;;
15603;SDS011;7902;49.042;9.092;2023-07-24T11:58:02;27.10;;;6.37;;
15603;SDS011;7902;49.042;9.092;2023-07-24T12:00:31;23.90;;;6.20;;
15603;SDS011;7902;49.042;9.092;2023-07-24T12:03:00;28.57;;;6.77;;
15603;SDS011;7902;49.042;9.092;2023-07-24T12:05:26;28.67;;;7.07;;
15603;SDS011;7902;49.042;9.092;2023-07-24T12:07:53;24.10;;;5.63;;
15603;SDS011;7902;49.042;9.092;2023-07-24T12:10:27;28.90;;;6.63;;
15603;SDS011;7902;49.042;9.092;2023-07-24T12:12:54;28.60;;;6.77;;
15603;SDS011;7902;49.042;9.092;2023-07-24T12:15:23;25.10;;;6.10;;
15603;SDS011;7902;49.042;9.092;2023-07-24T12:17:49;22.70;;;6.00;;
15603;SDS011;7902;49.042;9.092;2023-07-24T12:20:15;25.53;;;6.37;;
15603;SDS011;7902;49.042;9.092;2023-07-24T12:22:41;25.30;;;6.67;;
15603;SDS011;7902;49.042;9.092;2023-07-24T12:25:07;25.30;;;7.20;;
15603;SDS011;7902;49.042;9.092;2023-07-24T12:27:33;24.90;;;5.97;;
15603;SDS011;7902;49.042;9.092;2023-07-24T12:29:59;26.83;;;6.57;;
15603;SDS011;7902;49.042;9.092;2023-07-24T12:32:25;26.10;;;6.00;;
15603;SDS011;7902;49.042;9.092;2023-07-24T12:34:52;24.23;;;6.53;;
15603;SDS011;7902;49.042;9.092;2023-07-24T12:37:19;27.40;;;6.40;;
15603;SDS011;7902;49.042;9.092;2023-07-24T12:39:46;26.07;;;6.90;;
15603;SDS011;7902;49.042;9.092;2023-07-24T12:42:13;21.83;;;6.10;;
15603;SDS011;7902;49.042;9.092;2023-07-24T12:44:40;23.90;;;6.63;;
15603;SDS011;7902;49.042;9.092;2023-07-24T12:47:07;22.70;;;5.30;;
15603;SDS011;7902;49.042;9.092;2023-07-24T12:49:33;22.50;;;6.20;;
15603;SDS011;7902;49.042;9.092;2023-07-24T12:51:59;27.30;;;7.00;;
15603;SDS011;7902;49.042;9.092;2023-07-24T12:54:25;29.87;;;6.43;;
15603;SDS011;7902;49.042;9.092;2023-07-24T12:56:51;28.07;;;6.27;;
15603;SDS011;7902;49.042;9.092;2023-07-24T12:59:17;23.47;;;6.70;;
15603;SDS011;7902;49.042;9.092;2023-07-24T13:01:44;21.83;;;5.63;;
15603;SDS011;7902;49.042;9.092;2023-07-24T13:04:10;24.07;;;5.93;;
15603;SDS011;7902;49.042;9.092;2023-07-24T13:06:36;27.73;;;6.27;;
15603;SDS011;7902;49.042;9.092;2023-07-24T13:09:02;23.10;;;5.40;;
15603;SDS011;7902;49.042;9.092;2023-07-24T13:11:29;24.10;;;6.00;;
15603;SDS011;7902;49.042;9.092;2023-07-24T13:13:55;26.20;;;5.63;;
15603;SDS011;7902;49.042;9.092;2023-07-24T13:16:22;20.80;;;5.40;;
15603;SDS011;7902;49.042;9.092;2023-07-24T13:18:48;21.97;;;5.60;;
15603;SDS011;7902;49.042;9.092;2023-07-24T13:21:14;22.47;;;5.40;;
15603;SDS011;7902;49.042;9.092;2023-07-24T13:23:41;23.40;;;5.13;;
15603;SDS011;7902;49.042;9.092;2023-07-24T13:26:07;23.13;;;5.50;;
15603;SDS011;7902;49.042;9.092;2023-07-24T13:28:36;23.30;;;5.30;;
15603;SDS011;7902;49.042;9.092;2023-07-24T13:31:15;22.47;;;5.30;;
15603;SDS011;7902;49.042;9.092;2023-07-24T13:33:45;23.00;;;5.53;;
15603;SDS011;7902;49.042;9.092;2023-07-24T13:36:12;22.50;;;5.37;;
15603;SDS011;7902;49.042;9.092;2023-07-24T13:38:39;21.00;;;5.40;;
15603;SDS011;7902;49.042;9.092;2023-07-24T13:41:05;23.02;;;5.10;;
15603;SDS011;7902;49.042;9.092;2023-07-24T13:43:32;21.08;;;4.97;;
15603;SDS011;7902;49.042;9.092;2023-07-24T13:45:58;22.52;;;5.10;;
15603;SDS011;7902;49.042;9.092;2023-07-24T13:48:26;22.90;;;5.90;;
15603;SDS011;7902;49.042;9.092;2023-07-24T13:50:52;27.33;;;5.32;;
15603;SDS011;7902;49.042;9.092;2023-07-24T13:53:18;27.85;;;6.05;;
15603;SDS011;7902;49.042;9.092;2023-07-24T13:55:44;26.77;;;5.78;;
15603;SDS011;7902;49.042;9.092;2023-07-24T13:58:10;25.83;;;6.57;;
15603;SDS011;7902;49.042;9.092;2023-07-24T14:00:37;26.30;;;5.68;;
15603;SDS011;7902;49.042;9.092;2023-07-24T14:03:03;24.25;;;5.30;;
15603;SDS011;7902;49.042;9.092;2023-07-24T14:05:29;21.23;;;4.93;;
15603;SDS011;7902;49.042;9.092;2023-07-24T14:07:54;24.90;;;5.80;;
15603;SDS011;7902;49.042;9.092;2023-07-24T14:10:20;23.40;;;5.07;;
15603;SDS011;7902;49.042;9.092;2023-07-24T14:12:46;23.63;;;5.63;;
15603;SDS011;7902;49.042;9.092;2023-07-24T14:15:12;23.70;;;5.07;;
15603;SDS011;7902;49.042;9.092;2023-07-24T14:17:38;21.45;;;5.10;;
15603;SDS011;7902;49.042;9.092;2023-07-24T14:20:04;20.95;;;5.00;;
15603;SDS011;7902;49.042;9.092;2023-07-24T14:22:30;24.88;;;5.78;;
15603;SDS011;7902;49.042;9.092;2023-07-24T14:24:56;20.58;;;4.70;;
15603;SDS011;7902;49.042;9.092;2023-07-24T14:27:22;23.30;;;5.68;;
15603;SDS011;7902;49.042;9.092;2023-07-24T14:29:48;22.80;;;5.60;;
15603;SDS011;7902;49.042;9.092;2023-07-24T14:32:14;22.98;;;4.55;;
15603;SDS011;7902;49.042;9.092;2023-07-24T14:34:41;27.05;;;5.85;;
15603;SDS011;7902;49.042;9.092;2023-07-24T14:37:07;22.88;;;4.97;;
15603;SDS011;7902;49.042;9.092;2023-07-24T14:39:33;23.08;;;5.32;;
15603;SDS011;7902;49.042;9.092;2023-07-24T14:41:59;23.70;;;5.80;;
15603;SDS011;7902;49.042;9.092;2023-07-24T14:44:25;21.38;;;4.68;;
15603;SDS011;7902;49.042;9.092;2023-07-24T14:46:51;21.25;;;4.90;;
15603;SDS011;7902;49.042;9.092;2023-07-24T14:49:17;21.13;;;5.40;;